Warsaw, Illinois
Current Conditions -  °F | °C
As of 3:15 PM on Monday 24 Nov 2014 (Local Time) from KEOK Reporting Station
Light Snow Light Snow  
Wind Chill: 19°   Ceiling: 2700
Heat Index: 30°   Visibility: 10mi
Dew Point: 25°   Wind: 16mph
Humidity: 80%   Direction: 280°W
Pressure: 29.73"   Gusts: NA
Location:  40.36°N, 91.43°W
Report Text: KEOK 242115Z AUTO 28014KT 10SM -SN SCT021 OVC027 M01/M04 A2973 RMK AO2
Loading
Personal Weather Stations






























Interactive Weather Map New forecast layout! Learn more

10-Day Weather Forecast

Advertisements
Track Severe Weather on mobile